createdAt,value
2017-11-25T00:00:09.772Z,15.93
2017-11-25T00:02:37.404Z,15.70
2017-11-25T00:05:05.837Z,14.60
2017-11-25T00:07:33.465Z,13.82
2017-11-25T00:10:01.095Z,16.92
2017-11-25T00:12:28.761Z,17.80
2017-11-25T00:14:56.383Z,14.20
2017-11-25T00:17:24.035Z,15.45
2017-11-25T00:19:51.656Z,14.93
2017-11-25T00:22:19.284Z,15.05
2017-11-25T00:24:46.941Z,16.17
2017-11-25T00:27:14.569Z,17.17
2017-11-25T00:29:43.010Z,18.45
2017-11-25T00:32:10.643Z,15.68
2017-11-25T00:34:38.275Z,14.23
2017-11-25T00:37:05.938Z,12.95
2017-11-25T00:39:33.599Z,13.02
2017-11-25T00:42:01.259Z,11.82
2017-11-25T00:44:28.883Z,10.43
2017-11-25T00:46:56.507Z,10.35
2017-11-25T00:49:24.231Z,11.73
2017-11-25T00:51:51.847Z,9.18
2017-11-25T00:54:19.494Z,8.70
2017-11-25T00:56:47.099Z,8.13
2017-11-25T00:59:14.719Z,8.52
2017-11-25T01:01:42.360Z,8.48
2017-11-25T01:04:09.976Z,7.20
2017-11-25T01:06:37.616Z,7.20
2017-11-25T01:09:05.222Z,7.07
2017-11-25T01:11:32.835Z,8.32
2017-11-25T01:14:01.236Z,6.78
2017-11-25T01:16:28.856Z,7.85
2017-11-25T01:18:56.506Z,8.13
2017-11-25T01:21:24.122Z,7.70
2017-11-25T01:23:51.737Z,11.05
2017-11-25T01:26:19.381Z,7.97
2017-11-25T01:28:47.003Z,9.10
2017-11-25T01:31:14.660Z,9.38
2017-11-25T01:33:42.288Z,12.32
2017-11-25T01:36:09.918Z,11.85
2017-11-25T01:38:37.642Z,12.95
2017-11-25T01:41:05.267Z,15.02
2017-11-25T01:43:32.915Z,13.85
2017-11-25T01:46:00.544Z,11.48
2017-11-25T01:48:28.191Z,11.27
2017-11-25T01:50:55.851Z,12.60
2017-11-25T01:53:23.485Z,11.55
2017-11-25T01:55:51.133Z,11.50
2017-11-25T01:58:18.752Z,10.77
2017-11-25T02:00:46.358Z,9.25
2017-11-25T02:03:14.583Z,13.05
2017-11-25T02:05:42.200Z,12.10
2017-11-25T02:08:09.860Z,11.60
2017-11-25T02:10:37.495Z,12.45
2017-11-25T02:13:05.137Z,11.75
2017-11-25T02:15:32.791Z,11.40
2017-11-25T02:18:00.410Z,9.70
2017-11-25T02:20:28.823Z,9.93
2017-11-25T02:22:56.440Z,14.02
2017-11-25T02:25:24.056Z,12.60
2017-11-25T02:27:51.707Z,12.32
2017-11-25T02:30:19.325Z,11.45
2017-11-25T02:32:46.987Z,13.35
2017-11-25T02:35:14.616Z,11.90
2017-11-25T02:37:42.247Z,16.87
2017-11-25T02:40:09.908Z,16.85
2017-11-25T02:42:37.603Z,19.27
2017-11-25T02:45:05.263Z,16.05
2017-11-25T02:47:32.896Z,19.23
2017-11-25T02:50:01.286Z,18.90
2017-11-25T02:52:28.960Z,19.20
2017-11-25T02:54:56.608Z,23.08
2017-11-25T02:57:24.280Z,25.60
2017-11-25T02:59:51.912Z,27.08
2017-11-25T03:02:19.540Z,18.87
2017-11-25T03:04:47.191Z,20.02
2017-11-25T03:07:14.820Z,21.35
2017-11-25T03:09:42.474Z,23.98
2017-11-25T03:12:10.091Z,25.30
2017-11-25T03:14:37.812Z,23.15
2017-11-25T03:17:05.458Z,24.00
2017-11-25T03:19:33.079Z,29.48
2017-11-25T03:22:00.737Z,31.90
2017-11-25T03:24:28.369Z,25.05
2017-11-25T03:26:56.003Z,29.52
2017-11-25T03:29:23.651Z,23.65
2017-11-25T03:31:51.264Z,24.52
2017-11-25T03:34:18.910Z,24.27
2017-11-25T03:36:46.539Z,23.35
2017-11-25T03:39:14.923Z,24.95
2017-11-25T03:41:42.582Z,29.33
2017-11-25T03:44:10.198Z,27.45
2017-11-25T03:46:38.620Z,23.62
2017-11-25T03:49:06.289Z,23.70
2017-11-25T03:51:33.920Z,25.88
2017-11-25T03:54:01.584Z,26.75
2017-11-25T03:56:29.210Z,28.62
2017-11-25T03:58:56.874Z,30.80
2017-11-25T04:01:24.499Z,30.50
2017-11-25T04:03:52.140Z,27.60
2017-11-25T04:06:19.800Z,30.80
2017-11-25T04:08:47.422Z,24.67
2017-11-25T04:11:15.159Z,25.65
2017-11-25T04:13:42.779Z,37.17
2017-11-25T04:16:11.163Z,31.52
2017-11-25T04:18:38.817Z,32.75
2017-11-25T04:21:06.443Z,32.03
2017-11-25T04:23:34.126Z,27.92
2017-11-25T04:26:01.760Z,37.55
2017-11-25T04:28:29.384Z,30.00
2017-11-25T04:30:57.040Z,27.33
2017-11-25T04:33:24.673Z,30.73
2017-11-25T04:35:52.341Z,32.75
2017-11-25T04:38:19.969Z,35.33
2017-11-25T04:40:47.588Z,33.38
2017-11-25T04:43:16.009Z,29.00
2017-11-25T04:45:43.630Z,34.30
2017-11-25T04:48:11.282Z,35.75
2017-11-25T04:50:38.910Z,26.87
2017-11-25T04:53:07.305Z,36.38
2017-11-25T04:55:34.963Z,30.83
2017-11-25T04:58:02.591Z,35.58
2017-11-25T05:00:30.480Z,31.23
2017-11-25T05:02:58.135Z,37.50
2017-11-25T05:05:25.770Z,40.15
2017-11-25T05:07:53.444Z,36.22
2017-11-25T05:10:21.832Z,36.97
2017-11-25T05:12:49.508Z,40.92
2017-11-25T05:15:17.156Z,38.55
2017-11-25T05:17:44.956Z,32.75
2017-11-25T05:20:13.380Z,33.72
2017-11-25T05:22:41.028Z,31.25
2017-11-25T05:25:08.709Z,38.67
2017-11-25T05:27:37.128Z,34.85
2017-11-25T05:30:04.850Z,31.95
2017-11-25T05:32:32.535Z,33.88
2017-11-25T05:35:00.183Z,33.25
2017-11-25T05:37:27.836Z,30.05
2017-11-25T05:39:55.496Z,37.30
2017-11-25T05:42:23.141Z,34.33
2017-11-25T05:44:50.796Z,35.15
2017-11-25T05:47:18.423Z,31.05
2017-11-25T05:49:46.039Z,32.78
2017-11-25T05:52:13.699Z,34.90
2017-11-25T05:54:41.325Z,28.52
2017-11-25T05:57:08.976Z,28.50
2017-11-25T05:59:36.616Z,26.73
2017-11-25T06:02:04.251Z,28.25
2017-11-25T06:04:32.671Z,31.73
2017-11-25T06:07:00.335Z,33.45
2017-11-25T06:09:27.988Z,34.17
2017-11-25T06:11:55.626Z,32.40
2017-11-25T06:14:23.247Z,30.77
2017-11-25T06:16:50.892Z,32.88
2017-11-25T06:19:18.548Z,32.53
2017-11-25T06:21:46.210Z,32.65
2017-11-25T06:24:13.849Z,36.67
2017-11-25T06:26:41.495Z,37.10
2017-11-25T06:29:09.155Z,33.97
2017-11-25T06:31:36.797Z,29.30
2017-11-25T06:34:04.447Z,32.47
2017-11-25T06:36:32.078Z,30.02
2017-11-25T06:38:59.710Z,29.15
2017-11-25T06:41:27.425Z,27.83
2017-11-25T06:43:55.042Z,28.85
2017-11-25T06:46:23.461Z,31.52
2017-11-25T06:48:51.125Z,27.65
2017-11-25T06:51:18.751Z,25.08
2017-11-25T06:53:46.448Z,27.62
2017-11-25T06:56:14.896Z,26.08
2017-11-25T06:58:42.553Z,27.75
2017-11-25T07:01:10.179Z,29.10
2017-11-25T07:03:37.808Z,28.83
2017-11-25T07:06:05.462Z,26.98
2017-11-25T07:08:33.093Z,28.25
2017-11-25T07:11:00.744Z,27.52
2017-11-25T07:13:28.370Z,29.33
2017-11-25T07:15:55.991Z,26.02
2017-11-25T07:18:24.411Z,26.05
2017-11-25T07:20:52.035Z,25.85
2017-11-25T07:23:19.707Z,26.05
2017-11-25T07:25:47.329Z,26.73
2017-11-25T07:28:14.952Z,29.30
2017-11-25T07:30:42.611Z,27.02
2017-11-25T07:33:10.281Z,23.20
2017-11-25T07:35:37.968Z,27.00
2017-11-25T07:38:05.648Z,27.45
2017-11-25T07:40:33.275Z,22.62
2017-11-25T07:43:01.766Z,25.02
2017-11-25T07:45:29.538Z,27.13
2017-11-25T07:47:58.131Z,30.00
2017-11-25T07:50:25.776Z,29.35
2017-11-25T07:52:53.408Z,30.85
2017-11-25T07:55:21.068Z,29.10
2017-11-25T07:57:48.712Z,34.13
2017-11-25T08:00:16.376Z,37.55
2017-11-25T08:02:44.881Z,32.58
2017-11-25T08:05:13.103Z,31.90
2017-11-25T08:07:41.708Z,31.73
2017-11-25T08:10:10.618Z,35.17
2017-11-25T08:12:38.510Z,32.08
2017-11-25T08:15:06.177Z,33.45
2017-11-25T08:17:33.905Z,34.00
2017-11-25T08:20:01.578Z,34.33
2017-11-25T08:22:29.907Z,33.30
2017-11-25T08:24:57.575Z,32.88
2017-11-25T08:27:25.247Z,32.00
2017-11-25T08:32:27.768Z,35.30
2017-11-25T08:35:00.774Z,35.20
2017-11-25T08:37:29.595Z,33.40
2017-11-25T08:40:01.727Z,40.45
2017-11-25T08:42:29.706Z,44.80
2017-11-25T08:44:58.449Z,35.05
2017-11-25T08:47:27.011Z,41.58
2017-11-25T08:49:54.682Z,38.53
2017-11-25T08:52:26.903Z,37.47
2017-11-25T08:54:54.886Z,37.72
2017-11-25T08:57:22.517Z,41.05
2017-11-25T08:59:50.142Z,54.83
2017-11-25T09:02:18.080Z,48.10
2017-11-25T09:04:46.479Z,46.47
2017-11-25T09:07:14.138Z,46.37
2017-11-25T09:09:42.014Z,54.97
2017-11-25T09:12:10.429Z,47.70
2017-11-25T09:14:38.093Z,42.28
2017-11-25T09:17:06.512Z,38.78
2017-11-25T09:19:34.952Z,52.80
2017-11-25T09:22:02.583Z,42.72
2017-11-25T09:24:30.204Z,50.35
2017-11-25T09:26:57.854Z,41.55
2017-11-25T09:29:25.492Z,39.97
2017-11-25T09:31:53.144Z,40.38
2017-11-25T09:34:20.775Z,44.33
2017-11-25T09:36:48.400Z,42.05
2017-11-25T09:39:16.815Z,47.95
2017-11-25T09:41:44.450Z,46.60
2017-11-25T09:44:12.115Z,47.50
2017-11-25T09:46:39.730Z,39.38
2017-11-25T09:49:07.355Z,44.83
2017-11-25T09:51:35.767Z,45.05
2017-11-25T09:54:03.430Z,44.30
2017-11-25T09:56:31.062Z,57.53
2017-11-25T09:58:58.737Z,45.65
2017-11-25T10:01:26.363Z,47.38
2017-11-25T10:03:53.983Z,50.03
2017-11-25T10:06:21.630Z,48.03
2017-11-25T10:08:49.256Z,48.58
2017-11-25T10:11:16.907Z,51.22
2017-11-25T10:13:44.587Z,41.08
2017-11-25T10:16:12.223Z,48.15
2017-11-25T10:18:39.843Z,52.95
2017-11-25T10:21:07.499Z,58.55
2017-11-25T10:23:35.114Z,62.03
2017-11-25T10:26:03.504Z,51.85
2017-11-25T10:28:31.151Z,36.92
2017-11-25T10:30:58.775Z,34.88
2017-11-25T10:33:27.168Z,35.47
2017-11-25T10:35:54.817Z,37.97
2017-11-25T10:38:22.439Z,45.28
2017-11-25T10:40:50.065Z,38.13
2017-11-25T10:43:17.719Z,59.00
2017-11-25T10:45:46.108Z,37.75
2017-11-25T10:48:14.803Z,45.08
2017-11-25T10:50:42.816Z,46.50
2017-11-25T10:53:12.087Z,62.22
2017-11-25T10:55:39.840Z,43.78
2017-11-25T10:58:07.513Z,51.63
2017-11-25T11:00:35.139Z,37.40
2017-11-25T11:03:03.557Z,40.58
2017-11-25T11:05:31.189Z,36.42
2017-11-25T11:07:58.812Z,37.60
2017-11-25T11:10:27.240Z,38.42
2017-11-25T11:12:54.900Z,37.47
2017-11-25T11:15:23.298Z,50.72
2017-11-25T11:17:50.956Z,38.88
2017-11-25T11:20:18.590Z,33.80
2017-11-25T11:22:46.206Z,31.42
2017-11-25T11:25:14.814Z,35.47
2017-11-25T11:27:42.452Z,32.10
2017-11-25T11:30:10.085Z,29.52
2017-11-25T11:32:37.935Z,32.10
2017-11-25T11:35:05.571Z,30.02
2017-11-25T11:37:34.018Z,38.47
2017-11-25T11:40:01.652Z,38.78
2017-11-25T11:42:29.307Z,31.27
2017-11-25T11:44:56.976Z,30.83
2017-11-25T11:47:25.391Z,25.50
2017-11-25T11:49:53.017Z,20.27
2017-11-25T11:52:20.960Z,28.00
2017-11-25T11:54:48.782Z,33.90
2017-11-25T11:57:17.218Z,35.90
2017-11-25T11:59:44.867Z,43.00
2017-11-25T12:02:12.539Z,30.65
2017-11-25T12:04:40.199Z,20.23
2017-11-25T12:07:08.603Z,17.20
2017-11-25T12:09:36.290Z,15.07
2017-11-25T12:12:03.922Z,10.48
2017-11-25T12:14:31.544Z,9.55
2017-11-25T12:16:59.228Z,6.60
2017-11-25T12:19:26.863Z,7.10
2017-11-25T12:21:54.519Z,5.30
2017-11-25T12:24:22.146Z,3.65
2017-11-25T12:26:49.783Z,3.03
2017-11-25T12:29:17.430Z,2.78
2017-11-25T12:31:45.060Z,1.98
2017-11-25T12:34:12.713Z,2.30
2017-11-25T12:36:40.344Z,1.87
2017-11-25T12:39:07.962Z,1.45
2017-11-25T12:41:35.633Z,2.40
2017-11-25T12:44:03.264Z,4.00
2017-11-25T12:46:31.056Z,2.87
2017-11-25T12:48:58.707Z,6.10
2017-11-25T12:51:26.362Z,2.37
2017-11-25T12:53:54.357Z,1.62
2017-11-25T12:56:22.014Z,1.95
2017-11-25T12:58:50.536Z,2.40
2017-11-25T13:01:18.164Z,1.65
2017-11-25T13:03:45.789Z,2.37
2017-11-25T13:06:13.468Z,2.40
2017-11-25T13:08:41.151Z,2.78
2017-11-25T13:11:08.829Z,2.42
2017-11-25T13:13:36.524Z,2.50
2017-11-25T13:16:04.162Z,1.90
2017-11-25T13:18:31.871Z,1.45
2017-11-25T13:20:59.504Z,2.33
2017-11-25T13:23:27.929Z,3.00
2017-11-25T13:25:55.557Z,2.03
2017-11-25T13:28:27.517Z,3.80
2017-11-25T13:30:55.173Z,3.17
2017-11-25T13:33:22.795Z,5.53
2017-11-25T13:35:50.440Z,3.15
2017-11-25T13:38:18.074Z,3.47
2017-11-25T13:40:45.723Z,5.00
2017-11-25T13:43:13.730Z,2.42
2017-11-25T13:45:41.347Z,3.10
2017-11-25T13:48:09.016Z,3.12
2017-11-25T13:50:37.084Z,2.90
2017-11-25T13:53:04.727Z,2.92
2017-11-25T13:55:32.352Z,1.80
2017-11-25T13:57:59.967Z,6.03
2017-11-25T14:00:27.668Z,2.80
2017-11-25T14:02:55.317Z,2.70
2017-11-25T14:05:24.335Z,4.62
2017-11-25T14:07:52.088Z,1.17
2017-11-25T14:10:19.703Z,1.20
2017-11-25T14:12:48.123Z,2.50
2017-11-25T14:15:17.526Z,2.05
2017-11-25T14:17:45.191Z,5.40
2017-11-25T14:20:12.813Z,3.22
2017-11-25T14:22:40.439Z,2.58
2017-11-25T14:25:08.106Z,2.58
2017-11-25T14:27:35.742Z,2.90
2017-11-25T14:30:03.408Z,3.62
2017-11-25T14:32:31.021Z,4.00
2017-11-25T14:34:58.717Z,3.53
2017-11-25T14:37:26.370Z,3.33
2017-11-25T14:39:57.797Z,4.43
2017-11-25T14:42:25.465Z,3.03
2017-11-25T14:44:53.841Z,4.10
2017-11-25T14:47:21.450Z,2.40
2017-11-25T14:49:49.107Z,3.35
2017-11-25T14:52:17.508Z,2.95
2017-11-25T14:54:45.177Z,2.97
2017-11-25T14:57:12.898Z,4.05
2017-11-25T14:59:40.536Z,3.00
2017-11-25T15:02:08.217Z,2.28
2017-11-25T15:04:35.832Z,9.40
2017-11-25T15:07:03.498Z,5.53
2017-11-25T15:09:31.123Z,4.80
2017-11-25T15:11:58.763Z,4.18
2017-11-25T15:14:26.431Z,4.90
2017-11-25T15:16:54.092Z,2.25
2017-11-25T15:19:21.765Z,2.60
2017-11-25T15:21:50.180Z,1.60
2017-11-25T15:24:17.828Z,1.70
2017-11-25T15:26:45.487Z,5.12
2017-11-25T15:29:13.163Z,2.80
2017-11-25T15:31:40.807Z,2.40
2017-11-25T15:34:08.551Z,1.80
2017-11-25T15:36:36.174Z,1.98
2017-11-25T15:39:03.865Z,2.40
2017-11-25T15:41:31.483Z,2.25
2017-11-25T15:43:59.172Z,5.15
2017-11-25T15:46:26.869Z,7.40
2017-11-25T15:48:54.506Z,6.55
2017-11-25T15:51:22.275Z,6.70
2017-11-25T15:53:49.905Z,6.85
2017-11-25T15:56:17.576Z,10.55
2017-11-25T15:58:45.228Z,12.43
2017-11-25T16:01:12.855Z,12.02
2017-11-25T16:03:40.509Z,11.50
2017-11-25T16:06:08.133Z,8.77
2017-11-25T16:08:35.800Z,9.88
2017-11-25T16:11:03.428Z,10.80
2017-11-25T16:13:31.040Z,6.30
2017-11-25T16:15:59.484Z,4.90
2017-11-25T16:18:27.114Z,4.28
2017-11-25T16:20:54.783Z,3.55
2017-11-25T16:23:22.421Z,2.37
2017-11-25T16:25:50.838Z,3.03
2017-11-25T16:28:18.568Z,2.10
2017-11-25T16:30:46.968Z,2.67
2017-11-25T16:33:14.665Z,3.15
2017-11-25T16:35:43.109Z,3.10
2017-11-25T16:38:10.748Z,2.62
2017-11-25T16:40:39.101Z,2.92
2017-11-25T16:43:07.875Z,4.87
2017-11-25T16:45:35.527Z,4.87
2017-11-25T16:48:14.189Z,10.05
2017-11-25T16:50:42.167Z,10.38
2017-11-25T16:53:09.800Z,8.88
2017-11-25T16:55:38.206Z,8.60
2017-11-25T16:58:06.755Z,10.05
2017-11-25T17:00:34.378Z,10.13
2017-11-25T17:03:02.045Z,7.50
2017-11-25T17:05:29.667Z,6.57
2017-11-25T17:07:57.290Z,7.25
2017-11-25T17:10:25.713Z,9.60
2017-11-25T17:12:53.323Z,10.23
2017-11-25T17:15:20.967Z,7.25
2017-11-25T17:17:48.626Z,8.23
2017-11-25T17:20:17.711Z,7.12
2017-11-25T17:22:45.400Z,6.20
2017-11-25T17:25:13.027Z,7.32
2017-11-25T17:27:40.688Z,6.70
2017-11-25T17:30:08.337Z,6.57
2017-11-25T17:32:35.991Z,5.50
2017-11-25T17:35:03.691Z,4.55
2017-11-25T17:37:31.314Z,4.10
2017-11-25T17:39:59.023Z,5.10
2017-11-25T17:42:26.658Z,3.30
2017-11-25T17:44:54.388Z,4.50
2017-11-25T17:47:22.050Z,3.55
2017-11-25T17:49:49.699Z,3.10
2017-11-25T17:52:17.381Z,3.58
2017-11-25T17:54:46.060Z,2.70
2017-11-25T17:57:15.008Z,3.17
2017-11-25T17:59:43.977Z,3.70
2017-11-25T18:02:11.767Z,2.62
2017-11-25T18:04:40.507Z,3.95
2017-11-25T18:07:08.155Z,4.45
2017-11-25T18:09:36.646Z,5.03
2017-11-25T18:12:04.294Z,5.20
2017-11-25T18:14:31.968Z,4.32
2017-11-25T18:16:59.770Z,5.22
2017-11-25T18:19:27.913Z,4.50
2017-11-25T18:21:55.611Z,3.50
2017-11-25T18:24:23.257Z,3.97
2017-11-25T18:26:50.879Z,4.80
2017-11-25T18:29:18.646Z,4.60
2017-11-25T18:31:46.380Z,4.85
2017-11-25T18:34:14.007Z,4.53
2017-11-25T18:36:41.687Z,3.08
2017-11-25T18:39:09.478Z,2.87
2017-11-25T18:41:38.046Z,3.15
2017-11-25T18:44:05.744Z,3.15
2017-11-25T18:46:33.360Z,3.03
2017-11-25T18:49:02.108Z,2.40
2017-11-25T18:51:29.731Z,3.00
2017-11-25T18:53:57.531Z,3.50
2017-11-25T18:56:25.173Z,3.10
2017-11-25T18:58:53.154Z,3.25
2017-11-25T19:01:21.258Z,2.90
2017-11-25T19:03:48.989Z,3.25
2017-11-25T19:06:16.831Z,3.00
2017-11-25T19:08:44.585Z,3.05
2017-11-25T19:11:12.293Z,3.35
2017-11-25T19:13:40.002Z,3.10
2017-11-25T19:16:09.044Z,5.10
2017-11-25T19:18:41.608Z,4.82
2017-11-25T19:21:09.233Z,5.55
2017-11-25T19:23:37.141Z,7.20
2017-11-25T19:26:04.896Z,5.35
2017-11-25T19:28:32.571Z,6.35
2017-11-25T19:31:00.331Z,7.80
2017-11-25T19:33:28.004Z,7.80
2017-11-25T19:35:55.685Z,5.75
2017-11-25T19:38:24.186Z,8.13
2017-11-25T19:40:52.304Z,5.90
2017-11-25T19:43:19.971Z,7.43
2017-11-25T19:45:47.651Z,8.00
2017-11-25T19:48:15.288Z,7.97
2017-11-25T19:50:42.945Z,7.78
2017-11-25T19:53:10.565Z,8.10
2017-11-25T19:55:38.239Z,10.13
2017-11-25T19:58:05.873Z,9.25
2017-11-25T20:00:33.604Z,8.07
2017-11-25T20:03:02.024Z,7.95
2017-11-25T20:05:29.669Z,7.97
2017-11-25T20:07:57.467Z,7.75
2017-11-25T20:10:25.854Z,8.32
2017-11-25T20:12:53.492Z,8.85
2017-11-25T20:15:21.153Z,9.00
2017-11-25T20:17:48.813Z,9.18
2017-11-25T20:20:18.190Z,8.90
2017-11-25T20:22:45.818Z,8.10
2017-11-25T20:25:13.482Z,8.10
2017-11-25T20:27:41.144Z,10.52
2017-11-25T20:30:08.798Z,10.48
2017-11-25T20:32:36.456Z,9.27
2017-11-25T20:35:04.111Z,9.15
2017-11-25T20:37:31.731Z,8.95
2017-11-25T20:39:59.397Z,7.82
2017-11-25T20:42:27.024Z,7.22
2017-11-25T20:44:54.673Z,8.15
2017-11-25T20:47:22.299Z,8.98
2017-11-25T20:49:49.946Z,9.38
2017-11-25T20:52:17.597Z,9.55
2017-11-25T20:54:45.225Z,11.90
2017-11-25T20:57:12.932Z,12.15
2017-11-25T20:59:40.598Z,12.88
2017-11-25T21:02:08.267Z,14.52
2017-11-25T21:04:36.031Z,11.85
2017-11-25T21:07:03.649Z,10.18
2017-11-25T21:09:33.144Z,8.45
2017-11-25T21:12:01.763Z,9.57
2017-11-25T21:14:29.402Z,7.07
2017-11-25T21:16:57.255Z,7.15
2017-11-25T21:19:24.887Z,8.15
2017-11-25T21:21:52.536Z,7.20
2017-11-25T21:24:20.153Z,8.63
2017-11-25T21:26:47.783Z,8.52
2017-11-25T21:29:16.209Z,10.00
2017-11-25T21:31:43.849Z,11.23
2017-11-25T21:34:11.504Z,11.15
2017-11-25T21:36:46.825Z,10.18
2017-11-25T21:39:20.946Z,12.63
2017-11-25T21:41:49.282Z,11.50
2017-11-25T21:44:16.903Z,10.32
2017-11-25T21:46:44.583Z,10.85
2017-11-25T21:49:12.796Z,9.85
2017-11-25T21:51:40.811Z,9.35
2017-11-25T21:54:08.464Z,9.65
2017-11-25T21:56:36.092Z,11.38
2017-11-25T21:59:03.706Z,9.52
2017-11-25T22:01:31.364Z,11.45
2017-11-25T22:03:59.606Z,9.73
2017-11-25T22:06:27.215Z,9.13
2017-11-25T22:08:54.880Z,9.85
2017-11-25T22:11:22.516Z,14.60
2017-11-25T22:13:50.905Z,14.68
2017-11-25T22:16:19.767Z,12.88
2017-11-25T22:18:48.183Z,14.15
2017-11-25T22:21:16.107Z,15.70
2017-11-25T22:23:43.769Z,14.32
2017-11-25T22:26:11.429Z,14.80
2017-11-25T22:28:39.137Z,13.98
2017-11-25T22:31:08.056Z,15.07
2017-11-25T22:33:35.693Z,14.80
2017-11-25T22:36:03.328Z,15.60
2017-11-25T22:38:30.995Z,12.35
2017-11-25T22:40:58.674Z,18.37
2017-11-25T22:43:27.095Z,16.77
2017-11-25T22:45:54.759Z,15.57
2017-11-25T22:48:22.453Z,11.05
2017-11-25T22:50:50.079Z,16.17
2017-11-25T22:53:18.494Z,13.62
2017-11-25T22:55:46.140Z,13.45
2017-11-25T22:58:13.927Z,16.17
2017-11-25T23:00:41.655Z,13.90
2017-11-25T23:03:09.296Z,16.42
2017-11-25T23:05:42.707Z,12.25
2017-11-25T23:08:10.332Z,13.43
2017-11-25T23:10:41.803Z,17.58
2017-11-25T23:13:10.228Z,15.02
2017-11-25T23:15:37.854Z,14.70
2017-11-25T23:18:05.540Z,16.35
2017-11-25T23:20:33.160Z,15.43
2017-11-25T23:23:00.812Z,16.58
2017-11-25T23:25:28.437Z,13.35
2017-11-25T23:27:56.063Z,14.32
2017-11-25T23:30:23.721Z,13.27
2017-11-25T23:32:51.354Z,16.73
2017-11-25T23:35:19.022Z,19.48
2017-11-25T23:37:46.650Z,18.70
2017-11-25T23:40:14.291Z,18.02
2017-11-25T23:42:41.943Z,17.62
2017-11-25T23:45:09.562Z,16.85
2017-11-25T23:47:37.227Z,21.42
2017-11-25T23:50:05.651Z,18.15
2017-11-25T23:52:33.273Z,19.77
2017-11-25T23:55:00.961Z,22.67
2017-11-25T23:57:28.594Z,20.52
2017-11-25T23:59:56.284Z,16.48
